Westville, Oklahoma
Current Conditions -  °F | °C
As of 4:55 AM on Saturday 25 Oct 2014 (Local Time) from KSLG Reporting Station
Clear Clear  
Wind Chill: 15°   Ceiling: Unl
Heat Index: 15°   Visibility: 10mi
Dew Point: 12°   Wind: 3mph
Humidity: 82%   Direction: 210°SSW
Pressure: 30.1"   Gusts: NA
Location:  35.99°N, 94.57°W
Report Text: KSLG 250955Z AUTO 21003KT 10SM CLR 15/12 A3010 RMK AO1
Loading
Personal Weather Stations






























Interactive Weather Map
Tropical Storm Tracking
New forecast layout! Learn more

10-Day Weather Forecast

Advertisements
Track Severe Weather on mobile